sensor_id;sensor_type;location;lat;lon;timestamp;P1;durP1;ratioP1;P2;durP2;ratioP2
25365;SDS011;13315;48.274;-1.900;2022-07-09T00:00:29;870.03;;;659.42;;
25365;SDS011;13315;48.274;-1.900;2022-07-09T00:02:55;858.63;;;651.85;;
25365;SDS011;13315;48.274;-1.900;2022-07-09T00:05:21;825.30;;;640.85;;
25365;SDS011;13315;48.274;-1.900;2022-07-09T00:07:47;822.53;;;633.22;;
25365;SDS011;13315;48.274;-1.900;2022-07-09T00:10:13;824.83;;;635.40;;
25365;SDS011;13315;48.274;-1.900;2022-07-09T00:12:39;863.80;;;651.45;;
25365;SDS011;13315;48.274;-1.900;2022-07-09T00:15:05;858.78;;;642.95;;
25365;SDS011;13315;48.274;-1.900;2022-07-09T00:17:32;865.20;;;647.15;;
25365;SDS011;13315;48.274;-1.900;2022-07-09T00:19:58;851.05;;;643.35;;
25365;SDS011;13315;48.274;-1.900;2022-07-09T00:22:26;858.50;;;638.00;;
25365;SDS011;13315;48.274;-1.900;2022-07-09T00:24:53;817.50;;;626.75;;
25365;SDS011;13315;48.274;-1.900;2022-07-09T00:27:19;817.72;;;625.13;;
25365;SDS011;13315;48.274;-1.900;2022-07-09T00:29:45;818.10;;;620.05;;
25365;SDS011;13315;48.274;-1.900;2022-07-09T00:32:11;849.88;;;636.70;;
25365;SDS011;13315;48.274;-1.900;2022-07-09T00:34:37;847.80;;;634.08;;
25365;SDS011;13315;48.274;-1.900;2022-07-09T00:37:03;852.70;;;630.33;;
25365;SDS011;13315;48.274;-1.900;2022-07-09T00:39:30;849.95;;;629.58;;
25365;SDS011;13315;48.274;-1.900;2022-07-09T00:42:05;833.97;;;630.40;;
25365;SDS011;13315;48.274;-1.900;2022-07-09T00:44:32;859.88;;;628.25;;
25365;SDS011;13315;48.274;-1.900;2022-07-09T00:46:58;842.22;;;618.58;;
25365;SDS011;13315;48.274;-1.900;2022-07-09T00:49:24;815.90;;;615.85;;
25365;SDS011;13315;48.274;-1.900;2022-07-09T00:51:51;812.42;;;613.97;;
25365;SDS011;13315;48.274;-1.900;2022-07-09T00:54:17;812.25;;;614.67;;
25365;SDS011;13315;48.274;-1.900;2022-07-09T00:56:44;811.47;;;609.80;;
25365;SDS011;13315;48.274;-1.900;2022-07-09T00:59:10;851.28;;;623.22;;
25365;SDS011;13315;48.274;-1.900;2022-07-09T01:01:37;847.67;;;623.88;;
25365;SDS011;13315;48.274;-1.900;2022-07-09T01:04:04;844.28;;;617.72;;
25365;SDS011;13315;48.274;-1.900;2022-07-09T01:06:30;839.67;;;612.67;;
25365;SDS011;13315;48.274;-1.900;2022-07-09T01:08:57;816.85;;;604.08;;
25365;SDS011;13315;48.274;-1.900;2022-07-09T01:11:23;807.45;;;605.60;;
25365;SDS011;13315;48.274;-1.900;2022-07-09T01:13:50;813.25;;;598.22;;
25365;SDS011;13315;48.274;-1.900;2022-07-09T01:16:16;809.42;;;602.83;;
25365;SDS011;13315;48.274;-1.900;2022-07-09T01:18:46;840.67;;;610.35;;
25365;SDS011;13315;48.274;-1.900;2022-07-09T01:21:13;841.75;;;606.28;;
25365;SDS011;13315;48.274;-1.900;2022-07-09T01:23:39;838.75;;;610.65;;
25365;SDS011;13315;48.274;-1.900;2022-07-09T01:26:05;844.88;;;607.72;;
25365;SDS011;13315;48.274;-1.900;2022-07-09T01:28:32;845.70;;;612.50;;
25365;SDS011;13315;48.274;-1.900;2022-07-09T01:30:58;813.33;;;594.88;;
25365;SDS011;13315;48.274;-1.900;2022-07-09T01:33:25;805.75;;;593.42;;
25365;SDS011;13315;48.274;-1.900;2022-07-09T01:35:51;806.47;;;591.22;;
25365;SDS011;13315;48.274;-1.900;2022-07-09T01:38:17;803.33;;;590.55;;
25365;SDS011;13315;48.274;-1.900;2022-07-09T01:40:43;848.17;;;605.38;;
25365;SDS011;13315;48.274;-1.900;2022-07-09T01:43:09;843.83;;;605.88;;
25365;SDS011;13315;48.274;-1.900;2022-07-09T01:45:36;839.72;;;604.88;;
25365;SDS011;13315;48.274;-1.900;2022-07-09T01:48:02;838.25;;;604.45;;
25365;SDS011;13315;48.274;-1.900;2022-07-09T01:50:28;807.10;;;592.78;;
25365;SDS011;13315;48.274;-1.900;2022-07-09T01:52:54;802.88;;;590.63;;
25365;SDS011;13315;48.274;-1.900;2022-07-09T01:55:20;801.58;;;587.83;;
25365;SDS011;13315;48.274;-1.900;2022-07-09T01:57:46;803.47;;;588.65;;
25365;SDS011;13315;48.274;-1.900;2022-07-09T02:00:12;830.95;;;595.78;;
25365;SDS011;13315;48.274;-1.900;2022-07-09T02:02:39;826.60;;;595.15;;
25365;SDS011;13315;48.274;-1.900;2022-07-09T02:05:05;834.30;;;600.33;;
25365;SDS011;13315;48.274;-1.900;2022-07-09T02:07:31;823.28;;;598.55;;
25365;SDS011;13315;48.274;-1.900;2022-07-09T02:09:57;794.55;;;587.20;;
25365;SDS011;13315;48.274;-1.900;2022-07-09T02:12:24;784.72;;;595.05;;
25365;SDS011;13315;48.274;-1.900;2022-07-09T02:14:51;791.08;;;592.88;;
25365;SDS011;13315;48.274;-1.900;2022-07-09T02:17:17;830.75;;;609.17;;
25365;SDS011;13315;48.274;-1.900;2022-07-09T02:19:43;823.50;;;605.38;;
25365;SDS011;13315;48.274;-1.900;2022-07-09T02:22:09;823.95;;;607.53;;
25365;SDS011;13315;48.274;-1.900;2022-07-09T02:24:35;825.70;;;605.60;;
25365;SDS011;13315;48.274;-1.900;2022-07-09T02:27:01;801.95;;;597.08;;
25365;SDS011;13315;48.274;-1.900;2022-07-09T02:29:27;792.72;;;594.13;;
25365;SDS011;13315;48.274;-1.900;2022-07-09T02:31:53;791.25;;;596.17;;
25365;SDS011;13315;48.274;-1.900;2022-07-09T02:34:20;789.50;;;591.25;;
25365;SDS011;13315;48.274;-1.900;2022-07-09T02:36:46;829.20;;;609.03;;
25365;SDS011;13315;48.274;-1.900;2022-07-09T02:39:13;820.95;;;605.65;;
25365;SDS011;13315;48.274;-1.900;2022-07-09T02:41:39;828.30;;;605.72;;
25365;SDS011;13315;48.274;-1.900;2022-07-09T02:44:05;827.05;;;596.33;;
25365;SDS011;13315;48.274;-1.900;2022-07-09T02:46:31;804.28;;;593.47;;
25365;SDS011;13315;48.274;-1.900;2022-07-09T02:48:57;794.08;;;586.95;;
25365;SDS011;13315;48.274;-1.900;2022-07-09T02:51:23;797.45;;;589.42;;
25365;SDS011;13315;48.274;-1.900;2022-07-09T02:53:49;832.05;;;597.10;;
25365;SDS011;13315;48.274;-1.900;2022-07-09T02:56:15;827.13;;;604.47;;
25365;SDS011;13315;48.274;-1.900;2022-07-09T02:58:41;836.17;;;604.22;;
25365;SDS011;13315;48.274;-1.900;2022-07-09T03:01:07;836.67;;;602.95;;
25365;SDS011;13315;48.274;-1.900;2022-07-09T03:03:33;807.80;;;590.67;;
25365;SDS011;13315;48.274;-1.900;2022-07-09T03:06:03;793.78;;;585.78;;
25365;SDS011;13315;48.274;-1.900;2022-07-09T03:08:31;786.47;;;587.10;;
25365;SDS011;13315;48.274;-1.900;2022-07-09T03:10:57;785.80;;;578.25;;
25365;SDS011;13315;48.274;-1.900;2022-07-09T03:13:23;789.58;;;576.85;;
25365;SDS011;13315;48.274;-1.900;2022-07-09T03:15:49;826.33;;;590.33;;
25365;SDS011;13315;48.274;-1.900;2022-07-09T03:18:15;828.60;;;592.92;;
25365;SDS011;13315;48.274;-1.900;2022-07-09T03:20:41;829.15;;;587.28;;
25365;SDS011;13315;48.274;-1.900;2022-07-09T03:23:07;829.45;;;588.72;;
25365;SDS011;13315;48.274;-1.900;2022-07-09T03:25:33;792.00;;;576.35;;
25365;SDS011;13315;48.274;-1.900;2022-07-09T03:27:59;792.35;;;574.40;;
25365;SDS011;13315;48.274;-1.900;2022-07-09T03:30:25;796.05;;;576.22;;
25365;SDS011;13315;48.274;-1.900;2022-07-09T03:32:51;803.78;;;588.00;;
25365;SDS011;13315;48.274;-1.900;2022-07-09T03:35:18;831.50;;;596.80;;
25365;SDS011;13315;48.274;-1.900;2022-07-09T03:37:44;826.30;;;596.55;;
25365;SDS011;13315;48.274;-1.900;2022-07-09T03:40:10;819.65;;;596.50;;
25365;SDS011;13315;48.274;-1.900;2022-07-09T03:42:36;797.15;;;587.28;;
25365;SDS011;13315;48.274;-1.900;2022-07-09T03:45:02;789.45;;;579.45;;
25365;SDS011;13315;48.274;-1.900;2022-07-09T03:47:29;794.80;;;581.70;;
25365;SDS011;13315;48.274;-1.900;2022-07-09T03:49:55;788.70;;;586.97;;
25365;SDS011;13315;48.274;-1.900;2022-07-09T03:52:21;831.42;;;595.92;;
25365;SDS011;13315;48.274;-1.900;2022-07-09T03:54:47;828.47;;;590.53;;
25365;SDS011;13315;48.274;-1.900;2022-07-09T03:57:13;837.45;;;594.92;;
25365;SDS011;13315;48.274;-1.900;2022-07-09T03:59:39;826.97;;;593.85;;
25365;SDS011;13315;48.274;-1.900;2022-07-09T04:02:05;792.58;;;590.90;;
25365;SDS011;13315;48.274;-1.900;2022-07-09T04:04:32;800.67;;;585.40;;
25365;SDS011;13315;48.274;-1.900;2022-07-09T04:06:58;792.33;;;583.35;;
25365;SDS011;13315;48.274;-1.900;2022-07-09T04:09:24;791.75;;;585.05;;
25365;SDS011;13315;48.274;-1.900;2022-07-09T04:11:51;823.30;;;599.38;;
25365;SDS011;13315;48.274;-1.900;2022-07-09T04:14:17;818.85;;;595.03;;
25365;SDS011;13315;48.274;-1.900;2022-07-09T04:16:44;828.45;;;595.72;;
25365;SDS011;13315;48.274;-1.900;2022-07-09T04:19:11;832.50;;;599.88;;
25365;SDS011;13315;48.274;-1.900;2022-07-09T04:21:37;798.00;;;586.97;;
25365;SDS011;13315;48.274;-1.900;2022-07-09T04:24:03;791.53;;;584.00;;
25365;SDS011;13315;48.274;-1.900;2022-07-09T04:26:30;796.95;;;584.05;;
25365;SDS011;13315;48.274;-1.900;2022-07-09T04:28:56;792.47;;;581.95;;
25365;SDS011;13315;48.274;-1.900;2022-07-09T04:31:22;811.67;;;594.65;;
25365;SDS011;13315;48.274;-1.900;2022-07-09T04:33:49;823.10;;;596.28;;
25365;SDS011;13315;48.274;-1.900;2022-07-09T04:36:15;814.60;;;596.67;;
25365;SDS011;13315;48.274;-1.900;2022-07-09T04:38:41;828.80;;;600.20;;
25365;SDS011;13315;48.274;-1.900;2022-07-09T04:41:07;784.60;;;588.67;;
25365;SDS011;13315;48.274;-1.900;2022-07-09T04:43:34;788.97;;;592.03;;
25365;SDS011;13315;48.274;-1.900;2022-07-09T04:46:00;783.58;;;584.95;;
25365;SDS011;13315;48.274;-1.900;2022-07-09T04:48:26;788.88;;;586.08;;
25365;SDS011;13315;48.274;-1.900;2022-07-09T04:50:52;825.88;;;601.42;;
25365;SDS011;13315;48.274;-1.900;2022-07-09T04:53:18;830.83;;;597.20;;
25365;SDS011;13315;48.274;-1.900;2022-07-09T04:55:45;827.33;;;600.20;;
25365;SDS011;13315;48.274;-1.900;2022-07-09T04:58:11;803.15;;;585.88;;
25365;SDS011;13315;48.274;-1.900;2022-07-09T05:00:37;786.13;;;580.53;;
25365;SDS011;13315;48.274;-1.900;2022-07-09T05:03:03;788.53;;;582.47;;
25365;SDS011;13315;48.274;-1.900;2022-07-09T05:05:29;791.67;;;582.05;;
25365;SDS011;13315;48.274;-1.900;2022-07-09T05:07:55;828.17;;;592.33;;
25365;SDS011;13315;48.274;-1.900;2022-07-09T05:10:21;824.47;;;585.97;;
25365;SDS011;13315;48.274;-1.900;2022-07-09T05:12:47;834.63;;;593.58;;
25365;SDS011;13315;48.274;-1.900;2022-07-09T05:15:13;835.42;;;588.90;;
25365;SDS011;13315;48.274;-1.900;2022-07-09T05:17:40;793.47;;;574.65;;
25365;SDS011;13315;48.274;-1.900;2022-07-09T05:20:08;795.25;;;577.42;;
25365;SDS011;13315;48.274;-1.900;2022-07-09T05:22:35;791.90;;;580.05;;
25365;SDS011;13315;48.274;-1.900;2022-07-09T05:25:02;789.22;;;575.10;;
25365;SDS011;13315;48.274;-1.900;2022-07-09T05:27:28;819.42;;;579.45;;
25365;SDS011;13315;48.274;-1.900;2022-07-09T05:29:54;833.88;;;590.38;;
25365;SDS011;13315;48.274;-1.900;2022-07-09T05:32:20;832.47;;;586.67;;
25365;SDS011;13315;48.274;-1.900;2022-07-09T05:34:46;832.95;;;585.35;;
25365;SDS011;13315;48.274;-1.900;2022-07-09T05:37:13;816.53;;;581.83;;
25365;SDS011;13315;48.274;-1.900;2022-07-09T05:39:39;804.83;;;576.30;;
25365;SDS011;13315;48.274;-1.900;2022-07-09T05:42:05;804.50;;;577.53;;
25365;SDS011;13315;48.274;-1.900;2022-07-09T05:44:32;808.88;;;580.85;;
25365;SDS011;13315;48.274;-1.900;2022-07-09T05:46:58;837.92;;;593.90;;
25365;SDS011;13315;48.274;-1.900;2022-07-09T05:49:24;840.20;;;598.17;;
25365;SDS011;13315;48.274;-1.900;2022-07-09T05:51:51;835.33;;;598.78;;
25365;SDS011;13315;48.274;-1.900;2022-07-09T05:54:17;848.63;;;610.95;;
25365;SDS011;13315;48.274;-1.900;2022-07-09T05:56:43;819.53;;;599.08;;
25365;SDS011;13315;48.274;-1.900;2022-07-09T05:59:10;812.78;;;603.97;;
25365;SDS011;13315;48.274;-1.900;2022-07-09T06:01:37;811.77;;;605.23;;
25365;SDS011;13315;48.274;-1.900;2022-07-09T06:04:08;810.22;;;602.75;;
25365;SDS011;13315;48.274;-1.900;2022-07-09T06:06:34;812.13;;;609.42;;
25365;SDS011;13315;48.274;-1.900;2022-07-09T06:09:00;838.65;;;613.08;;
25365;SDS011;13315;48.274;-1.900;2022-07-09T06:11:26;845.60;;;616.13;;
25365;SDS011;13315;48.274;-1.900;2022-07-09T06:13:53;853.28;;;614.67;;
25365;SDS011;13315;48.274;-1.900;2022-07-09T06:16:19;844.08;;;609.83;;
25365;SDS011;13315;48.274;-1.900;2022-07-09T06:18:45;829.72;;;608.88;;
25365;SDS011;13315;48.274;-1.900;2022-07-09T06:21:11;810.20;;;604.13;;
25365;SDS011;13315;48.274;-1.900;2022-07-09T06:23:37;813.63;;;601.78;;
25365;SDS011;13315;48.274;-1.900;2022-07-09T06:26:04;812.15;;;604.90;;
25365;SDS011;13315;48.274;-1.900;2022-07-09T06:28:30;855.50;;;620.20;;
25365;SDS011;13315;48.274;-1.900;2022-07-09T06:30:56;846.67;;;617.58;;
25365;SDS011;13315;48.274;-1.900;2022-07-09T06:33:22;850.65;;;618.95;;
25365;SDS011;13315;48.274;-1.900;2022-07-09T06:35:48;845.47;;;614.13;;
25365;SDS011;13315;48.274;-1.900;2022-07-09T06:38:14;810.60;;;604.58;;
25365;SDS011;13315;48.274;-1.900;2022-07-09T06:40:40;810.88;;;609.88;;
25365;SDS011;13315;48.274;-1.900;2022-07-09T06:43:07;812.00;;;610.78;;
25365;SDS011;13315;48.274;-1.900;2022-07-09T06:45:34;809.13;;;613.70;;
25365;SDS011;13315;48.274;-1.900;2022-07-09T06:48:01;844.10;;;622.97;;
25365;SDS011;13315;48.274;-1.900;2022-07-09T06:50:27;846.30;;;624.58;;
25365;SDS011;13315;48.274;-1.900;2022-07-09T06:52:53;849.55;;;628.97;;
25365;SDS011;13315;48.274;-1.900;2022-07-09T06:55:19;848.72;;;628.85;;
25365;SDS011;13315;48.274;-1.900;2022-07-09T06:57:45;810.83;;;622.28;;
25365;SDS011;13315;48.274;-1.900;2022-07-09T07:00:12;808.28;;;628.15;;
25365;SDS011;13315;48.274;-1.900;2022-07-09T07:02:38;819.92;;;628.45;;
25365;SDS011;13315;48.274;-1.900;2022-07-09T07:05:04;816.47;;;631.60;;
25365;SDS011;13315;48.274;-1.900;2022-07-09T07:07:30;844.13;;;643.40;;
25365;SDS011;13315;48.274;-1.900;2022-07-09T07:09:57;856.00;;;650.08;;
25365;SDS011;13315;48.274;-1.900;2022-07-09T07:12:23;855.75;;;655.85;;
25365;SDS011;13315;48.274;-1.900;2022-07-09T07:14:49;841.65;;;651.63;;
25365;SDS011;13315;48.274;-1.900;2022-07-09T07:17:15;818.70;;;649.53;;
25365;SDS011;13315;48.274;-1.900;2022-07-09T07:19:42;814.53;;;656.28;;
25365;SDS011;13315;48.274;-1.900;2022-07-09T07:22:08;814.22;;;651.80;;
25365;SDS011;13315;48.274;-1.900;2022-07-09T07:24:34;867.03;;;670.95;;
25365;SDS011;13315;48.274;-1.900;2022-07-09T07:27:00;859.38;;;669.33;;
25365;SDS011;13315;48.274;-1.900;2022-07-09T07:29:26;859.83;;;668.55;;
25365;SDS011;13315;48.274;-1.900;2022-07-09T07:31:52;842.03;;;674.40;;
25365;SDS011;13315;48.274;-1.900;2022-07-09T07:34:19;816.22;;;668.33;;
25365;SDS011;13315;48.274;-1.900;2022-07-09T07:36:47;813.13;;;663.35;;
25365;SDS011;13315;48.274;-1.900;2022-07-09T07:39:14;812.03;;;673.75;;
25365;SDS011;13315;48.274;-1.900;2022-07-09T07:41:40;810.22;;;675.83;;
25365;SDS011;13315;48.274;-1.900;2022-07-09T07:44:06;835.00;;;690.00;;
25365;SDS011;13315;48.274;-1.900;2022-07-09T07:46:32;843.30;;;690.70;;
25365;SDS011;13315;48.274;-1.900;2022-07-09T07:48:58;852.85;;;698.55;;
25365;SDS011;13315;48.274;-1.900;2022-07-09T07:51:24;840.85;;;697.67;;
25365;SDS011;13315;48.274;-1.900;2022-07-09T07:53:50;826.08;;;705.55;;
25365;SDS011;13315;48.274;-1.900;2022-07-09T07:56:16;805.10;;;697.15;;
25365;SDS011;13315;48.274;-1.900;2022-07-09T07:58:43;811.70;;;700.75;;
25365;SDS011;13315;48.274;-1.900;2022-07-09T08:01:09;802.53;;;707.35;;
25365;SDS011;13315;48.274;-1.900;2022-07-09T08:03:35;838.40;;;715.17;;
25365;SDS011;13315;48.274;-1.900;2022-07-09T08:06:01;831.60;;;715.20;;
25365;SDS011;13315;48.274;-1.900;2022-07-09T08:08:27;847.47;;;724.80;;
25365;SDS011;13315;48.274;-1.900;2022-07-09T08:10:53;826.08;;;718.85;;
25365;SDS011;13315;48.274;-1.900;2022-07-09T08:13:20;803.25;;;712.63;;
25365;SDS011;13315;48.274;-1.900;2022-07-09T08:15:46;799.55;;;708.10;;
25365;SDS011;13315;48.274;-1.900;2022-07-09T08:18:12;801.97;;;710.22;;
25365;SDS011;13315;48.274;-1.900;2022-07-09T08:20:39;805.03;;;715.00;;
25365;SDS011;13315;48.274;-1.900;2022-07-09T08:23:06;833.45;;;736.25;;
25365;SDS011;13315;48.274;-1.900;2022-07-09T08:25:33;827.77;;;737.17;;
25365;SDS011;13315;48.274;-1.900;2022-07-09T08:27:59;827.53;;;737.60;;
25365;SDS011;13315;48.274;-1.900;2022-07-09T08:30:26;828.95;;;736.83;;
25365;SDS011;13315;48.274;-1.900;2022-07-09T08:32:52;819.05;;;731.28;;
25365;SDS011;13315;48.274;-1.900;2022-07-09T08:35:18;822.22;;;734.88;;
25365;SDS011;13315;48.274;-1.900;2022-07-09T08:37:44;819.28;;;731.13;;
25365;SDS011;13315;48.274;-1.900;2022-07-09T08:40:11;819.88;;;733.58;;
25365;SDS011;13315;48.274;-1.900;2022-07-09T08:42:37;843.65;;;753.10;;
25365;SDS011;13315;48.274;-1.900;2022-07-09T08:45:03;831.85;;;743.30;;
25365;SDS011;13315;48.274;-1.900;2022-07-09T08:47:33;844.92;;;753.90;;
25365;SDS011;13315;48.274;-1.900;2022-07-09T08:50:00;848.88;;;758.97;;
25365;SDS011;13315;48.274;-1.900;2022-07-09T08:52:26;844.45;;;756.67;;
25365;SDS011;13315;48.274;-1.900;2022-07-09T08:54:53;837.70;;;751.38;;
25365;SDS011;13315;48.274;-1.900;2022-07-09T08:57:19;839.88;;;754.17;;
25365;SDS011;13315;48.274;-1.900;2022-07-09T08:59:45;838.67;;;752.67;;
25365;SDS011;13315;48.274;-1.900;2022-07-09T09:02:11;847.42;;;760.83;;
25365;SDS011;13315;48.274;-1.900;2022-07-09T09:04:39;869.40;;;778.00;;
25365;SDS011;13315;48.274;-1.900;2022-07-09T09:07:38;859.67;;;769.45;;
25365;SDS011;13315;48.274;-1.900;2022-07-09T09:09:57;859.85;;;769.08;;
25365;SDS011;13315;48.274;-1.900;2022-07-09T09:12:27;851.72;;;763.47;;
25365;SDS011;13315;48.274;-1.900;2022-07-09T09:14:53;854.30;;;765.30;;
25365;SDS011;13315;48.274;-1.900;2022-07-09T09:17:19;860.78;;;771.95;;
25365;SDS011;13315;48.274;-1.900;2022-07-09T09:19:45;861.55;;;771.92;;
25365;SDS011;13315;48.274;-1.900;2022-07-09T09:22:14;888.30;;;792.95;;
25365;SDS011;13315;48.274;-1.900;2022-07-09T09:24:41;876.42;;;783.63;;
25365;SDS011;13315;48.274;-1.900;2022-07-09T09:27:07;882.05;;;788.10;;
25365;SDS011;13315;48.274;-1.900;2022-07-09T09:29:33;891.10;;;795.55;;
25365;SDS011;13315;48.274;-1.900;2022-07-09T09:32:10;889.08;;;793.80;;
25365;SDS011;13315;48.274;-1.900;2022-07-09T09:34:36;890.88;;;794.92;;
25365;SDS011;13315;48.274;-1.900;2022-07-09T09:37:02;895.40;;;798.67;;
25365;SDS011;13315;48.274;-1.900;2022-07-09T09:39:29;899.15;;;800.85;;
25365;SDS011;13315;48.274;-1.900;2022-07-09T09:41:56;892.35;;;797.28;;
25365;SDS011;13315;48.274;-1.900;2022-07-09T09:44:23;895.60;;;799.53;;
25365;SDS011;13315;48.274;-1.900;2022-07-09T09:46:51;895.10;;;798.83;;
25365;SDS011;13315;48.274;-1.900;2022-07-09T09:49:17;901.63;;;804.72;;
25365;SDS011;13315;48.274;-1.900;2022-07-09T09:51:51;913.40;;;814.28;;
25365;SDS011;13315;48.274;-1.900;2022-07-09T09:54:20;907.42;;;810.17;;
25365;SDS011;13315;48.274;-1.900;2022-07-09T09:56:47;907.47;;;810.28;;
25365;SDS011;13315;48.274;-1.900;2022-07-09T09:59:14;929.00;;;826.72;;
25365;SDS011;13315;48.274;-1.900;2022-07-09T10:01:40;922.10;;;821.35;;
25365;SDS011;13315;48.274;-1.900;2022-07-09T10:04:08;917.58;;;817.05;;
25365;SDS011;13315;48.274;-1.900;2022-07-09T10:06:34;924.10;;;822.30;;
25365;SDS011;13315;48.274;-1.900;2022-07-09T10:09:01;921.03;;;820.38;;
25365;SDS011;13315;48.274;-1.900;2022-07-09T10:11:37;915.05;;;816.80;;
25365;SDS011;13315;48.274;-1.900;2022-07-09T10:14:03;924.10;;;823.10;;
25365;SDS011;13315;48.274;-1.900;2022-07-09T10:16:33;924.50;;;824.80;;
25365;SDS011;13315;48.274;-1.900;2022-07-09T10:18:59;916.40;;;817.70;;
25365;SDS011;13315;48.274;-1.900;2022-07-09T10:21:32;918.63;;;821.00;;
25365;SDS011;13315;48.274;-1.900;2022-07-09T10:23:59;922.20;;;823.72;;
25365;SDS011;13315;48.274;-1.900;2022-07-09T10:29:24;918.65;;;821.35;;
25365;SDS011;13315;48.274;-1.900;2022-07-09T10:31:55;922.63;;;825.15;;
25365;SDS011;13315;48.274;-1.900;2022-07-09T10:37:00;927.88;;;830.05;;
25365;SDS011;13315;48.274;-1.900;2022-07-09T10:39:27;930.17;;;832.15;;
25365;SDS011;13315;48.274;-1.900;2022-07-09T10:42:00;930.78;;;832.80;;
25365;SDS011;13315;48.274;-1.900;2022-07-09T10:44:33;925.67;;;827.92;;
25365;SDS011;13315;48.274;-1.900;2022-07-09T10:46:59;930.83;;;832.65;;
25365;SDS011;13315;48.274;-1.900;2022-07-09T10:49:25;935.58;;;837.38;;
25365;SDS011;13315;48.274;-1.900;2022-07-09T10:51:55;935.60;;;837.65;;
25365;SDS011;13315;48.274;-1.900;2022-07-09T10:54:22;932.38;;;834.33;;
25365;SDS011;13315;48.274;-1.900;2022-07-09T10:56:48;936.00;;;837.97;;
25365;SDS011;13315;48.274;-1.900;2022-07-09T10:59:18;950.53;;;848.40;;
25365;SDS011;13315;48.274;-1.900;2022-07-09T11:01:44;948.10;;;846.70;;
25365;SDS011;13315;48.274;-1.900;2022-07-09T11:04:10;950.97;;;849.33;;
25365;SDS011;13315;48.274;-1.900;2022-07-09T11:06:45;948.42;;;847.05;;
25365;SDS011;13315;48.274;-1.900;2022-07-09T11:09:15;949.13;;;847.67;;
25365;SDS011;13315;48.274;-1.900;2022-07-09T11:11:42;953.38;;;851.15;;
25365;SDS011;13315;48.274;-1.900;2022-07-09T11:14:11;953.65;;;851.90;;
25365;SDS011;13315;48.274;-1.900;2022-07-09T11:16:37;956.00;;;854.05;;
25365;SDS011;13315;48.274;-1.900;2022-07-09T11:19:16;952.42;;;852.08;;
25365;SDS011;13315;48.274;-1.900;2022-07-09T11:21:42;959.00;;;857.53;;
25365;SDS011;13315;48.274;-1.900;2022-07-09T11:24:18;961.75;;;859.20;;
25365;SDS011;13315;48.274;-1.900;2022-07-09T11:26:45;966.20;;;863.28;;
25365;SDS011;13315;48.274;-1.900;2022-07-09T11:29:16;965.30;;;862.95;;
25365;SDS011;13315;48.274;-1.900;2022-07-09T11:31:46;966.13;;;863.47;;
25365;SDS011;13315;48.274;-1.900;2022-07-09T11:34:13;963.72;;;861.28;;
25365;SDS011;13315;48.274;-1.900;2022-07-09T11:36:41;963.20;;;860.75;;
25365;SDS011;13315;48.274;-1.900;2022-07-09T11:39:07;965.47;;;863.05;;
25365;SDS011;13315;48.274;-1.900;2022-07-09T11:41:43;968.47;;;868.35;;
25365;SDS011;13315;48.274;-1.900;2022-07-09T11:44:09;969.55;;;866.90;;
25365;SDS011;13315;48.274;-1.900;2022-07-09T11:46:37;974.53;;;870.78;;
25365;SDS011;13315;48.274;-1.900;2022-07-09T11:49:12;964.75;;;864.40;;
25365;SDS011;13315;48.274;-1.900;2022-07-09T11:51:39;979.30;;;875.35;;
25365;SDS011;13315;48.274;-1.900;2022-07-09T11:54:05;969.30;;;867.92;;
25365;SDS011;13315;48.274;-1.900;2022-07-09T11:56:49;964.20;;;864.63;;
25365;SDS011;13315;48.274;-1.900;2022-07-09T11:59:24;977.95;;;874.95;;
25365;SDS011;13315;48.274;-1.900;2022-07-09T12:01:51;964.90;;;864.72;;
25365;SDS011;13315;48.274;-1.900;2022-07-09T12:04:18;985.28;;;881.80;;
25365;SDS011;13315;48.274;-1.900;2022-07-09T12:06:48;977.78;;;874.40;;
25365;SDS011;13315;48.274;-1.900;2022-07-09T12:09:14;981.95;;;878.78;;
25365;SDS011;13315;48.274;-1.900;2022-07-09T12:11:41;985.53;;;881.63;;
25365;SDS011;13315;48.274;-1.900;2022-07-09T12:14:07;982.28;;;878.90;;
25365;SDS011;13315;48.274;-1.900;2022-07-09T12:16:35;975.25;;;874.53;;
25365;SDS011;13315;48.274;-1.900;2022-07-09T12:19:01;974.47;;;874.50;;
25365;SDS011;13315;48.274;-1.900;2022-07-09T12:21:27;972.13;;;872.05;;
25365;SDS011;13315;48.274;-1.900;2022-07-09T12:23:53;972.67;;;872.55;;
25365;SDS011;13315;48.274;-1.900;2022-07-09T12:26:19;986.85;;;882.80;;
25365;SDS011;13315;48.274;-1.900;2022-07-09T12:28:45;985.80;;;881.97;;
25365;SDS011;13315;48.274;-1.900;2022-07-09T12:31:11;986.53;;;883.13;;
25365;SDS011;13315;48.274;-1.900;2022-07-09T12:33:37;979.78;;;877.28;;
25365;SDS011;13315;48.274;-1.900;2022-07-09T12:36:04;977.70;;;877.53;;
25365;SDS011;13315;48.274;-1.900;2022-07-09T12:38:30;981.22;;;880.75;;
25365;SDS011;13315;48.274;-1.900;2022-07-09T12:40:56;985.60;;;884.92;;
25365;SDS011;13315;48.274;-1.900;2022-07-09T12:43:22;1002.33;;;897.72;;
25365;SDS011;13315;48.274;-1.900;2022-07-09T12:45:48;999.83;;;895.20;;
25365;SDS011;13315;48.274;-1.900;2022-07-09T12:48:14;994.90;;;890.78;;
25365;SDS011;13315;48.274;-1.900;2022-07-09T12:50:40;995.65;;;891.90;;
25365;SDS011;13315;48.274;-1.900;2022-07-09T12:53:06;987.70;;;886.33;;
25365;SDS011;13315;48.274;-1.900;2022-07-09T12:55:32;985.42;;;884.60;;
25365;SDS011;13315;48.274;-1.900;2022-07-09T12:57:59;990.72;;;889.85;;
25365;SDS011;13315;48.274;-1.900;2022-07-09T13:00:25;990.97;;;889.83;;
25365;SDS011;13315;48.274;-1.900;2022-07-09T13:02:51;1004.45;;;900.08;;
25365;SDS011;13315;48.274;-1.900;2022-07-09T13:05:17;1008.97;;;904.22;;
25365;SDS011;13315;48.274;-1.900;2022-07-09T13:07:43;1004.35;;;899.83;;
25365;SDS011;13315;48.274;-1.900;2022-07-09T13:10:09;1001.92;;;898.88;;
25365;SDS011;13315;48.274;-1.900;2022-07-09T13:12:35;995.83;;;894.53;;
25365;SDS011;13315;48.274;-1.900;2022-07-09T13:15:02;997.83;;;896.75;;
25365;SDS011;13315;48.274;-1.900;2022-07-09T13:17:28;998.03;;;896.72;;
25365;SDS011;13315;48.274;-1.900;2022-07-09T13:19:54;1015.25;;;909.75;;
25365;SDS011;13315;48.274;-1.900;2022-07-09T13:22:21;1005.92;;;901.78;;
25365;SDS011;13315;48.274;-1.900;2022-07-09T13:24:47;1010.85;;;905.33;;
25365;SDS011;13315;48.274;-1.900;2022-07-09T13:27:13;1005.90;;;901.30;;
25365;SDS011;13315;48.274;-1.900;2022-07-09T13:29:39;995.13;;;892.95;;
25365;SDS011;13315;48.274;-1.900;2022-07-09T13:32:05;992.13;;;891.20;;
25365;SDS011;13315;48.274;-1.900;2022-07-09T13:34:32;994.17;;;892.95;;
25365;SDS011;13315;48.274;-1.900;2022-07-09T13:36:58;993.70;;;892.75;;
25365;SDS011;13315;48.274;-1.900;2022-07-09T13:39:24;1001.58;;;897.88;;
25365;SDS011;13315;48.274;-1.900;2022-07-09T13:41:50;1004.92;;;900.58;;
25365;SDS011;13315;48.274;-1.900;2022-07-09T13:44:16;1004.75;;;900.25;;
25365;SDS011;13315;48.274;-1.900;2022-07-09T13:46:42;1002.28;;;898.17;;